Time;durP1;ratioP1;P1;durP2;ratioP2;P2;SDS_P1;SDS_P2;PMS_P1;PMS_P2;Temp;Humidity;BMP_temperature;BMP_pressure;BME280_temperature;BME280_humidity;BME280_pressure;Samples;Min_cycle;Max_cycle;Signal;HPM_P1;HPM_P2
2022/06/21 00:00:48;;;;;;;2.40;1.55;;;17.20;98.70;;;;;;5035038;28;20044;-77
2022/06/21 00:03:22;;;;;;;3.72;2.72;;;17.10;99.00;;;;;;5041175;28;20052;-76
2022/06/21 00:05:52;;;;;;;3.15;1.73;;;16.70;99.70;;;;;;5041009;28;20120;-76
2022/06/21 00:08:26;;;;;;;4.30;2.25;;;16.70;99.90;;;;;;5035342;28;20099;-76
2022/06/21 00:10:54;;;;;;;2.95;2.28;;;16.80;99.90;;;;;;5032341;28;20087;-76
2022/06/21 00:13:25;;;;;;;2.58;2.03;;;17.30;99.90;;;;;;5036455;28;20140;-75
2022/06/21 00:15:56;;;;;;;3.45;2.90;;;17.60;99.90;;;;;;5048716;28;20044;-75
2022/06/21 00:18:25;;;;;;;4.78;2.50;;;17.70;99.80;;;;;;5051708;28;20040;-76
2022/06/21 00:20:53;;;;;;;4.13;2.70;;;18.20;99.00;;;;;;5045097;28;20046;-73
2022/06/21 00:23:27;;;;;;;5.63;2.50;;;18.50;98.80;;;;;;5048406;28;20104;-76
2022/06/21 00:25:56;;;;;;;3.38;2.17;;;18.80;98.70;;;;;;5049404;28;20060;-73
2022/06/21 00:28:24;;;;;;;2.28;1.80;;;19.30;98.00;;;;;;5046429;28;20025;-75
2022/06/21 00:30:52;;;;;;;2.47;1.65;;;19.50;96.60;;;;;;5049967;28;20443;-74
2022/06/21 00:33:25;;;;;;;2.95;1.77;;;19.80;96.80;;;;;;5050554;28;20040;-75
2022/06/21 00:35:56;;;;;;;4.45;1.40;;;19.80;95.80;;;;;;5049089;28;20039;-72
2022/06/21 00:38:31;;;;;;;2.88;1.00;;;19.90;95.50;;;;;;5053182;28;20405;-73
2022/06/21 00:41:01;;;;;;;1.83;1.35;;;20.00;95.50;;;;;;5033535;28;20073;-74
2022/06/21 00:43:32;;;;;;;3.35;1.30;;;20.20;95.80;;;;;;5029864;28;20132;-72
2022/06/21 00:46:01;;;;;;;2.00;1.13;;;20.50;95.40;;;;;;5031384;28;20035;-77
2022/06/21 00:48:39;;;;;;;3.90;1.60;;;21.00;94.70;;;;;;5031333;28;20488;-75
2022/06/21 00:51:12;;;;;;;2.53;1.33;;;20.80;95.30;;;;;;5039300;28;20036;-72
2022/06/21 00:53:46;;;;;;;2.90;1.33;;;21.50;93.60;;;;;;5035276;28;20021;-73
2022/06/21 00:56:42;;;;;;;3.83;1.38;;;21.80;93.50;;;;;;5048034;28;20030;-72
2022/06/21 00:59:17;;;;;;;2.45;1.58;;;21.80;93.60;;;;;;5034583;28;20501;-74
2022/06/21 01:01:45;;;;;;;2.03;1.50;;;22.30;93.40;;;;;;5028962;28;20064;-76
2022/06/21 01:04:34;;;;;;;3.03;1.00;;;22.10;92.80;;;;;;5031048;28;20056;-74
2022/06/21 01:07:04;;;;;;;1.27;0.80;;;22.00;92.70;;;;;;5030586;28;20514;-74
2022/06/21 01:09:40;;;;;;;3.65;0.73;;;22.30;91.80;;;;;;5030088;28;20021;-74
2022/06/21 01:12:21;;;;;;;1.83;0.90;;;22.20;92.60;;;;;;5030919;28;20026;-74
2022/06/21 01:14:55;;;;;;;6.50;1.50;;;21.30;92.30;;;;;;5033751;28;20455;-75
2022/06/21 01:17:24;;;;;;;4.32;1.75;;;20.30;93.00;;;;;;5028988;28;20117;-75
2022/06/21 01:19:58;;;;;;;3.20;1.40;;;19.60;94.10;;;;;;5032091;28;20066;-76
2022/06/21 01:23:08;;;;;;;5.15;1.38;;;19.00;95.70;;;;;;5032714;28;20033;-73
2022/06/21 01:25:47;;;;;;;4.32;1.23;;;18.10;96.30;;;;;;5029659;28;20144;-74
2022/06/21 01:28:16;;;;;;;1.70;1.00;;;18.00;97.30;;;;;;5031117;28;20033;-73
2022/06/21 01:30:50;;;;;;;1.35;1.10;;;18.90;96.10;;;;;;5030200;28;20021;-75
2022/06/21 01:33:26;;;;;;;2.17;1.20;;;19.50;95.50;;;;;;5030255;28;20490;-74
2022/06/21 01:35:56;;;;;;;3.95;1.30;;;20.00;95.00;;;;;;5027711;28;23274;-74
2022/06/21 01:38:40;;;;;;;3.72;1.10;;;20.80;93.70;;;;;;5029238;28;20041;-76
2022/06/21 01:41:17;;;;;;;2.50;1.35;;;21.70;93.30;;;;;;5039377;28;20036;-76
2022/06/21 01:43:48;;;;;;;1.67;0.90;;;21.90;93.10;;;;;;5041538;28;20102;-75
2022/06/21 01:46:20;;;;;;;3.33;1.02;;;22.50;92.70;;;;;;5035958;28;20029;-73
2022/06/21 01:48:51;;;;;;;1.80;0.95;;;22.90;92.20;;;;;;5029565;28;20467;-73
2022/06/21 01:51:28;;;;;;;2.60;0.70;;;23.50;91.60;;;;;;5048889;28;20045;-74
2022/06/21 01:53:56;;;;;;;1.55;1.23;;;24.00;91.00;;;;;;5049415;28;20383;-73
2022/06/21 01:56:29;;;;;;;3.22;1.23;;;24.20;90.90;;;;;;5048022;28;20025;-73
2022/06/21 01:59:04;;;;;;;3.55;1.10;;;23.40;91.20;;;;;;5038722;28;20447;-74
2022/06/21 02:01:41;;;;;;;3.08;0.70;;;23.50;91.40;;;;;;5039318;28;20483;-75
2022/06/21 02:04:10;;;;;;;1.85;0.95;;;23.70;91.40;;;;;;5037195;28;20402;-75
2022/06/21 02:06:41;;;;;;;2.90;1.10;;;24.10;91.10;;;;;;5030255;28;20037;-75
2022/06/21 02:09:27;;;;;;;1.58;0.77;;;24.50;90.50;;;;;;5045681;28;20064;-73
2022/06/21 02:12:05;;;;;;;2.92;1.83;;;24.90;90.80;;;;;;5041131;28;20021;-73
2022/06/21 02:14:44;;;;;;;1.40;0.80;;;25.00;89.50;;;;;;5033122;28;20109;-74
2022/06/21 02:17:27;;;;;;;0.65;0.60;;;25.00;88.70;;;;;;5031309;28;20040;-73
2022/06/21 02:20:10;;;;;;;0.90;0.50;;;25.00;88.40;;;;;;5030114;28;20061;-75
2022/06/21 02:22:39;;;;;;;1.85;0.80;;;25.10;88.60;;;;;;5032379;28;20033;-75
2022/06/21 02:25:09;;;;;;;3.35;0.70;;;25.10;88.70;;;;;;5035105;28;20025;-73
2022/06/21 02:27:37;;;;;;;1.08;0.63;;;24.30;88.80;;;;;;5038980;28;20092;-74
2022/06/21 02:30:13;;;;;;;2.67;0.77;;;23.60;90.60;;;;;;5029505;28;20452;-74
2022/06/21 02:32:42;;;;;;;1.40;0.80;;;22.60;91.10;;;;;;5039712;28;20439;-71
2022/06/21 02:35:22;;;;;;;2.15;0.50;;;21.70;92.10;;;;;;5046623;28;20090;-74
2022/06/21 02:37:52;;;;;;;2.10;0.82;;;21.00;93.00;;;;;;5038471;28;20037;-74
2022/06/21 02:40:46;;;;;;;2.72;0.77;;;20.50;94.10;;;;;;5035952;28;20032;-73
2022/06/21 02:43:23;;;;;;;2.47;0.80;;;20.20;94.50;;;;;;5046966;28;20078;-74
2022/06/21 02:46:26;;;;;;;1.40;0.70;;;20.00;95.10;;;;;;5035847;28;20032;-72
2022/06/21 02:48:59;;;;;;;3.88;0.63;;;20.00;95.70;;;;;;5045299;28;20047;-74
2022/06/21 02:51:37;;;;;;;1.33;0.80;;;20.00;95.40;;;;;;5031615;28;20116;-75
2022/06/21 02:54:14;;;;;;;2.05;0.60;;;19.90;95.30;;;;;;5040268;28;20025;-72
2022/06/21 02:57:05;;;;;;;2.92;1.13;;;20.20;95.80;;;;;;5041685;28;20025;-73
2022/06/21 02:59:35;;;;;;;1.63;0.68;;;20.20;95.20;;;;;;5036115;28;20530;-75
2022/06/21 03:02:11;;;;;;;1.77;0.75;;;20.10;95.40;;;;;;5044606;28;20105;-73
2022/06/21 03:04:48;;;;;;;3.25;1.00;;;19.90;95.10;;;;;;5037408;28;20514;-73
2022/06/21 03:07:23;;;;;;;1.85;0.82;;;19.70;95.60;;;;;;5046939;28;20037;-74
2022/06/21 03:09:52;;;;;;;4.53;1.40;;;19.50;96.10;;;;;;5042396;28;20035;-75
2022/06/21 03:12:33;;;;;;;1.50;0.75;;;19.30;96.40;;;;;;5034511;28;20052;-75
2022/06/21 03:15:09;;;;;;;2.40;0.80;;;19.30;96.50;;;;;;5048820;28;20090;-74
2022/06/21 03:17:38;;;;;;;;;;;19.20;96.90;;;;;;5046237;28;20455;-75
2022/06/21 03:20:13;;;;;;;2.78;0.82;;;19.10;97.20;;;;;;5051924;28;20269;-74
2022/06/21 03:22:42;;;;;;;2.13;0.65;;;19.10;97.30;;;;;;5051094;28;20029;-72
2022/06/21 03:25:27;;;;;;;0.85;0.63;;;19.00;97.40;;;;;;5049048;28;20032;-74
2022/06/21 03:27:58;;;;;;;3.80;0.57;;;19.10;97.50;;;;;;5046630;28;20025;-74
2022/06/21 03:30:32;;;;;;;0.90;0.65;;;19.70;96.90;;;;;;5045922;28;20025;-75
2022/06/21 03:33:01;;;;;;;2.22;0.60;;;20.20;96.30;;;;;;5042565;28;20037;-72
2022/06/21 03:35:32;;;;;;;3.83;1.15;;;20.50;95.70;;;;;;5047799;28;20025;-73
2022/06/21 03:38:00;;;;;;;2.28;0.50;;;20.60;95.40;;;;;;5034864;28;20038;-74
2022/06/21 03:43:30;;;;;;;2.40;0.93;;;20.30;96.30;;;;;;5036556;28;20150;-75
2022/06/21 03:46:02;;;;;;;1.83;0.40;;;20.10;96.00;;;;;;5049898;28;20029;-73
2022/06/21 03:48:42;;;;;;;1.80;0.85;;;19.90;96.70;;;;;;5032574;28;20025;-75
2022/06/21 03:51:31;;;;;;;0.60;0.50;;;19.90;96.60;;;;;;5033122;28;20414;-74
2022/06/21 03:54:22;;;;;;;0.80;0.50;;;19.90;96.80;;;;;;5031831;28;20025;-73
2022/06/21 03:57:01;;;;;;;4.95;0.77;;;20.10;96.90;;;;;;5042111;28;20049;-76
2022/06/21 03:59:42;;;;;;;2.47;0.75;;;20.10;96.60;;;;;;5050801;28;20029;-75
2022/06/21 04:02:35;;;;;;;2.53;0.45;;;20.10;96.60;;;;;;5041486;28;20017;-76
2022/06/21 04:05:12;;;;;;;4.47;1.33;;;20.10;97.20;;;;;;5014516;28;20040;-76
2022/06/21 04:07:53;;;;;;;2.50;0.70;;;19.90;96.60;;;;;;5037998;28;20041;-75
2022/06/21 04:10:25;;;;;;;2.45;0.60;;;19.80;97.20;;;;;;5031589;28;20037;-75
2022/06/21 04:12:58;;;;;;;2.75;0.60;;;19.70;97.10;;;;;;5045898;28;20040;-74
2022/06/21 04:15:41;;;;;;;1.40;0.45;;;19.70;97.40;;;;;;5039348;28;20104;-75
2022/06/21 04:18:19;;;;;;;2.80;0.50;;;19.60;97.50;;;;;;5033548;28;20452;-75
2022/06/21 04:20:53;;;;;;;3.17;0.57;;;19.60;97.20;;;;;;5040706;28;20452;-75
2022/06/21 04:23:26;;;;;;;1.00;0.50;;;19.60;97.10;;;;;;5037385;28;20060;-76
2022/06/21 04:25:54;;;;;;;2.25;0.98;;;19.50;97.50;;;;;;5042593;28;20072;-73
2022/06/21 04:28:42;;;;;;;3.13;0.90;;;19.40;97.40;;;;;;5046454;28;20494;-74
2022/06/21 04:31:13;;;;;;;2.70;1.00;;;19.40;97.50;;;;;;5049326;28;20029;-76
2022/06/21 04:34:08;;;;;;;4.10;0.70;;;19.30;97.50;;;;;;5040329;28;20100;-74
2022/06/21 04:36:43;;;;;;;2.22;1.08;;;19.30;97.70;;;;;;5043011;28;20041;-74
2022/06/21 04:39:24;;;;;;;0.90;0.60;;;19.20;98.00;;;;;;5050574;28;20124;-75
2022/06/21 04:42:08;;;;;;;1.10;0.75;;;19.20;97.80;;;;;;5029799;28;20448;-73
2022/06/21 04:44:52;;;;;;;1.42;0.40;;;19.10;97.70;;;;;;5050760;28;20120;-75
2022/06/21 04:47:42;;;;;;;3.42;0.52;;;19.00;97.70;;;;;;5049355;28;20483;-74
2022/06/21 04:50:15;;;;;;;1.40;0.35;;;18.90;98.00;;;;;;5062194;28;20159;-74
2022/06/21 04:52:55;;;;;;;3.80;0.40;;;19.00;97.60;;;;;;5037546;28;20053;-74
2022/06/21 04:55:30;;;;;;;2.38;0.65;;;19.10;97.50;;;;;;5042834;28;20047;-74
2022/06/21 04:57:58;;;;;;;2.70;0.32;;;19.20;97.40;;;;;;5045313;28;20360;-74
2022/06/21 05:00:25;;;;;;;1.77;0.73;;;19.20;97.30;;;;;;5044606;28;20507;-75
2022/06/21 05:03:05;;;;;;;0.30;0.30;;;19.10;97.70;;;;;;5042402;28;20051;-76
2022/06/21 05:05:36;;;;;;;2.38;0.60;;;19.10;98.00;;;;;;5030074;28;20028;-74
2022/06/21 05:08:06;;;;;;;1.05;0.43;;;19.10;98.10;;;;;;5040887;28;20052;-72
2022/06/21 05:10:37;;;;;;;1.02;0.60;;;19.20;98.10;;;;;;5053182;28;20021;-74
2022/06/21 05:13:26;;;;;;;2.20;0.57;;;19.20;98.00;;;;;;5048656;28;20036;-73
2022/06/21 05:16:01;;;;;;;1.90;0.40;;;19.20;98.00;;;;;;5042348;28;20368;-75
2022/06/21 05:18:37;;;;;;;2.60;0.80;;;19.20;98.10;;;;;;5050017;28;20048;-73
2022/06/21 05:21:12;;;;;;;1.95;0.47;;;19.20;97.80;;;;;;5032601;28;20446;-74
2022/06/21 05:23:40;;;;;;;1.73;0.60;;;19.10;97.90;;;;;;5029898;28;20037;-74
2022/06/21 05:26:25;;;;;;;2.30;0.80;;;19.10;98.00;;;;;;5033936;28;20258;-74
2022/06/21 05:29:00;;;;;;;3.13;0.60;;;19.00;98.30;;;;;;5032344;28;20033;-74
2022/06/21 05:31:32;;;;;;;1.63;0.50;;;19.00;98.50;;;;;;5044754;28;20052;-75
2022/06/21 05:34:07;;;;;;;2.38;0.60;;;18.90;98.70;;;;;;5039731;28;20041;-76
2022/06/21 05:37:01;;;;;;;1.10;0.80;;;18.90;98.90;;;;;;5043411;28;20172;-74
2022/06/21 05:39:39;;;;;;;2.10;1.00;;;18.80;99.10;;;;;;5037948;28;20071;-74
2022/06/21 05:42:12;;;;;;;4.63;2.10;;;18.80;99.20;;;;;;5030438;28;20514;-73
2022/06/21 05:44:45;;;;;;;3.10;1.80;;;18.70;99.30;;;;;;5030556;28;20033;-74
2022/06/21 05:47:21;;;;;;;3.40;2.08;;;18.70;99.50;;;;;;5032380;28;20091;-75
2022/06/21 05:49:49;;;;;;;7.07;1.00;;;18.70;99.60;;;;;;5031273;28;20049;-74
2022/06/21 05:52:32;;;;;;;5.18;1.02;;;18.70;99.70;;;;;;5030685;28;20095;-75
2022/06/21 05:55:10;;;;;;;4.13;2.42;;;18.60;99.90;;;;;;5035145;28;20025;-74
2022/06/21 05:57:46;;;;;;;6.57;2.20;;;18.60;99.90;;;;;;5033331;28;20364;-72
2022/06/21 06:00:51;;;;;;;5.82;2.60;;;18.50;99.90;;;;;;5029896;28;20048;-74
2022/06/21 06:03:40;;;;;;;4.63;3.42;;;18.40;99.90;;;;;;5038386;28;20037;-74
2022/06/21 06:06:13;;;;;;;5.47;3.00;;;18.30;99.90;;;;;;5029838;28;20562;-75
2022/06/21 06:08:43;;;;;;;2.97;1.70;;;18.20;99.90;;;;;;5029012;28;20029;-76
2022/06/21 06:11:22;;;;;;;3.30;1.98;;;18.10;99.90;;;;;;5032004;28;20048;-76
2022/06/21 06:13:53;;;;;;;7.25;2.10;;;18.00;99.90;;;;;;5035871;28;20116;-75
2022/06/21 06:16:27;;;;;;;5.70;2.65;;;17.90;99.90;;;;;;5051963;28;20055;-74
2022/06/21 06:19:05;;;;;;;4.90;2.90;;;17.90;99.90;;;;;;5046481;28;20412;-74
2022/06/21 06:21:46;;;;;;;6.07;3.10;;;17.80;99.90;;;;;;5037044;28;20025;-74
2022/06/21 06:25:00;;;;;;;6.30;2.67;;;17.70;99.90;;;;;;5044849;28;20024;-75
2022/06/21 06:27:39;;;;;;;9.05;4.38;;;17.60;99.90;;;;;;5041949;28;20070;-75
2022/06/21 06:30:11;;;;;;;5.78;3.17;;;17.50;99.90;;;;;;5049737;28;20033;-76
2022/06/21 06:32:47;;;;;;;7.05;2.65;;;17.30;99.90;;;;;;5060823;28;20020;-76
2022/06/21 06:35:17;;;;;;;;;;;17.20;99.90;;;;;;5044780;28;20037;-74
2022/06/21 06:37:46;;;;;;;3.78;2.72;;;17.00;99.90;;;;;;5038097;28;19916;-74
2022/06/21 06:40:27;;;;;;;4.70;2.83;;;16.90;99.90;;;;;;5049591;28;20037;-74
2022/06/21 06:43:26;;;;;;;3.47;2.53;;;16.80;99.90;;;;;;5046956;28;20028;-75
2022/06/21 06:45:56;;;;;;;5.95;2.20;;;16.70;99.90;;;;;;5042550;28;20031;-76
2022/06/21 06:48:30;;;;;;;2.83;1.85;;;16.60;99.90;;;;;;5035786;28;20103;-73
2022/06/21 06:51:27;;;;;;;3.22;1.88;;;16.60;99.90;;;;;;5048254;28;20059;-74
2022/06/21 06:53:56;;;;;;;10.20;3.33;;;16.60;99.90;;;;;;5052591;28;20860;-75
2022/06/21 06:56:30;;;;;;;3.58;2.20;;;16.50;99.90;;;;;;5036881;28;20028;-73
2022/06/21 06:59:07;;;;;;;3.42;2.38;;;16.50;99.90;;;;;;5053430;28;20070;-73
2022/06/21 07:01:48;;;;;;;4.85;1.85;;;16.40;99.90;;;;;;5046774;28;20099;-73
2022/06/21 07:04:18;;;;;;;3.50;2.28;;;16.40;99.90;;;;;;5048055;28;20051;-74
2022/06/21 07:06:52;;;;;;;5.53;2.90;;;16.30;99.90;;;;;;5041638;28;20025;-74
2022/06/21 07:09:24;;;;;;;6.47;2.33;;;16.20;99.90;;;;;;5040390;28;20339;-73
2022/06/21 07:12:00;;;;;;;2.90;2.17;;;16.10;99.90;;;;;;5046398;28;20037;-73
2022/06/21 07:14:29;;;;;;;4.05;2.55;;;16.00;99.90;;;;;;5049663;28;20036;-72
2022/06/21 07:17:12;;;;;;;3.50;1.95;;;15.90;99.90;;;;;;5039726;28;20037;-73
2022/06/21 07:19:39;;;;;;;4.10;1.48;;;15.80;99.90;;;;;;5041859;28;20108;-75
2022/06/21 07:22:19;;;;;;;4.78;2.35;;;15.70;99.90;;;;;;5035505;28;20045;-76
2022/06/21 07:24:55;;;;;;;3.13;1.67;;;15.60;99.90;;;;;;5039039;28;20032;-75
2022/06/21 07:27:26;;;;;;;3.55;1.98;;;15.50;99.90;;;;;;5046201;28;20458;-74
2022/06/21 07:30:01;;;;;;;3.47;1.75;;;15.50;99.90;;;;;;5045925;28;20040;-74
2022/06/21 07:32:57;;;;;;;27.17;11.38;;;15.40;99.90;;;;;;5036211;28;20029;-74
2022/06/21 07:35:47;;;;;;;27.42;13.10;;;15.40;99.90;;;;;;5024919;28;20029;-75
2022/06/21 07:38:39;;;;;;;16.40;7.72;;;15.40;99.90;;;;;;5036302;28;20391;-75
2022/06/21 07:41:19;;;;;;;15.32;7.28;;;15.30;99.90;;;;;;5035048;28;20048;-74
2022/06/21 07:43:53;;;;;;;6.55;3.25;;;15.40;99.90;;;;;;5032493;28;20043;-76
2022/06/21 07:46:29;;;;;;;5.03;3.45;;;15.40;99.90;;;;;;5035718;28;20487;-75
2022/06/21 07:49:13;;;;;;;4.05;2.40;;;15.40;99.90;;;;;;5040400;28;20528;-75
2022/06/21 07:51:46;;;;;;;3.70;2.00;;;15.40;99.90;;;;;;5035933;28;20091;-74
2022/06/21 07:54:42;;;;;;;3.03;1.75;;;15.40;99.90;;;;;;5040836;28;20095;-75
2022/06/21 07:57:16;;;;;;;3.55;1.77;;;15.50;99.90;;;;;;5039224;28;20471;-74
2022/06/21 07:59:51;;;;;;;2.20;1.65;;;15.40;99.90;;;;;;5043775;28;20060;-73
2022/06/21 08:08:21;;;;;;;2.58;1.80;;;15.50;99.90;;;;;;5031560;28;20032;-73
2022/06/21 08:10:57;;;;;;;2.60;1.48;;;15.50;99.90;;;;;;5027760;28;20115;-74
2022/06/21 08:13:25;;;;;;;4.13;2.08;;;15.50;99.90;;;;;;5028512;28;20336;-73
2022/06/21 08:16:06;;;;;;;2.95;2.05;;;15.50;99.90;;;;;;5031154;28;20040;-73
2022/06/21 08:18:46;;;;;;;5.10;2.28;;;15.50;99.90;;;;;;5052368;28;20028;-75
2022/06/21 08:21:33;;;;;;;5.38;2.63;;;15.50;99.90;;;;;;5039390;28;20060;-74
2022/06/21 08:24:14;;;;;;;5.60;3.95;;;15.50;99.90;;;;;;5046679;28;20044;-74
2022/06/21 08:26:41;;;;;;;4.93;3.25;;;15.50;99.90;;;;;;5045598;28;20107;-74
2022/06/21 08:29:30;;;;;;;11.02;4.32;;;15.50;99.90;;;;;;5036962;28;20037;-74
2022/06/21 08:32:14;;;;;;;6.10;3.55;;;15.40;99.90;;;;;;5036153;28;20056;-73
2022/06/21 08:34:50;;;;;;;6.72;3.65;;;15.40;99.90;;;;;;5047981;28;20034;-73
2022/06/21 08:37:30;;;;;;;6.45;3.85;;;15.40;99.90;;;;;;5048174;28;20129;-74
2022/06/21 08:39:59;;;;;;;6.88;4.20;;;15.30;99.90;;;;;;5030454;28;20033;-74
2022/06/21 08:42:53;;;;;;;7.90;5.45;;;15.20;99.90;;;;;;5049612;28;20025;-74
2022/06/21 08:45:50;;;;;;;4.32;3.60;;;15.10;99.90;;;;;;5034304;28;20068;-76
2022/06/21 08:48:56;;;;;;;5.95;2.20;;;15.00;99.90;;;;;;5031304;28;20035;-73
2022/06/21 08:52:00;;;;;;;2.05;1.42;;;14.90;99.90;;;;;;5030533;28;20885;-76
2022/06/21 08:54:56;;;;;;;4.75;2.63;;;14.80;99.90;;;;;;5027249;28;20036;-73
2022/06/21 08:57:35;;;;;;;6.45;4.40;;;14.80;99.90;;;;;;5033939;28;20048;-74
2022/06/21 09:00:33;;;;;;;6.35;4.28;;;14.70;99.90;;;;;;5053338;28;20047;-77
2022/06/21 09:03:06;;;;;;;4.18;3.28;;;14.50;99.90;;;;;;5044062;28;20036;-74
2022/06/21 09:06:03;;;;;;;3.30;2.60;;;14.40;99.90;;;;;;5044631;28;20092;-76
2022/06/21 09:08:59;;;;;;;3.92;2.58;;;14.30;99.90;;;;;;5042685;28;20163;-74
2022/06/21 09:11:42;;;;;;;4.40;2.00;;;14.20;99.90;;;;;;5035735;28;20104;-76
2022/06/21 09:14:29;;;;;;;4.80;1.80;;;14.00;99.90;;;;;;5034410;28;20136;-75
2022/06/21 09:17:14;;;;;;;2.00;1.42;;;14.00;99.90;;;;;;5034788;28;20045;-78
2022/06/21 09:20:05;;;;;;;2.42;1.65;;;13.90;99.90;;;;;;5037085;28;20104;-76
2022/06/21 09:22:58;;;;;;;2.58;1.58;;;13.70;99.90;;;;;;5036937;28;20029;-76
2022/06/21 09:25:49;;;;;;;2.65;1.52;;;13.60;99.90;;;;;;5040645;28;20037;-76
2022/06/21 09:28:23;;;;;;;2.83;1.92;;;13.60;99.90;;;;;;5055077;28;20029;-76
2022/06/21 09:31:03;;;;;;;3.95;2.10;;;13.50;99.90;;;;;;5033462;28;20063;-74
2022/06/21 09:33:55;;;;;;;3.38;2.85;;;13.50;99.90;;;;;;5031119;28;20430;-75
2022/06/21 09:36:23;;;;;;;5.40;4.43;;;13.40;99.90;;;;;;5022088;28;20522;-75
2022/06/21 09:39:00;;;;;;;5.70;4.03;;;13.40;99.90;;;;;;5030102;28;20080;-73
2022/06/21 09:41:56;;;;;;;5.95;3.65;;;13.40;99.90;;;;;;5037376;28;20086;-76
2022/06/21 09:44:46;;;;;;;4.83;3.43;;;13.30;99.90;;;;;;5038761;28;20030;-74
2022/06/21 09:47:23;;;;;;;5.63;3.75;;;13.30;99.90;;;;;;5041257;28;20059;-74
2022/06/21 09:50:03;;;;;;;3.40;2.65;;;13.30;99.90;;;;;;5051779;28;20032;-74
2022/06/21 09:52:54;;;;;;;5.20;3.53;;;13.20;99.90;;;;;;5052963;28;20458;-77
2022/06/21 09:55:49;;;;;;;4.43;3.58;;;13.10;99.90;;;;;;5054854;28;20093;-75
2022/06/21 09:58:37;;;;;;;5.30;3.67;;;13.00;99.90;;;;;;5004250;28;20041;-73
2022/06/21 10:01:33;;;;;;;3.78;2.67;;;12.90;99.90;;;;;;5042490;28;20025;-75
2022/06/21 10:04:14;;;;;;;5.20;3.07;;;12.80;99.90;;;;;;5023147;28;20075;-74
2022/06/21 10:07:04;;;;;;;5.50;3.08;;;12.60;99.90;;;;;;5042335;28;20285;-77
2022/06/21 10:09:43;;;;;;;4.55;3.55;;;12.50;99.90;;;;;;5028175;28;20446;-74
2022/06/21 10:12:29;;;;;;;4.18;3.08;;;12.40;99.90;;;;;;5039447;28;20018;-78
2022/06/21 10:15:19;;;;;;;5.67;2.93;;;12.40;99.90;;;;;;5032904;28;20037;-79
2022/06/21 10:18:16;;;;;;;4.03;3.63;;;12.30;99.90;;;;;;5030147;28;20042;-75
2022/06/21 10:20:48;;;;;;;4.20;3.42;;;12.30;99.90;;;;;;5032695;28;20029;-77
2022/06/21 10:23:18;;;;;;;4.70;3.00;;;12.20;99.90;;;;;;5028796;28;20498;-76
2022/06/21 10:26:19;;;;;;;4.47;2.90;;;12.10;99.90;;;;;;5030125;28;20036;-77
2022/06/21 10:28:53;;;;;;;4.60;2.80;;;12.10;99.90;;;;;;5025883;28;20040;-74
2022/06/21 10:31:30;;;;;;;3.35;2.05;;;12.10;99.90;;;;;;5030188;28;20025;-76
2022/06/21 10:34:25;;;;;;;4.45;2.88;;;12.00;99.90;;;;;;5030700;28;20071;-76
2022/06/21 10:37:03;;;;;;;4.38;3.20;;;12.00;99.90;;;;;;5029769;28;20045;-75
2022/06/21 10:39:48;;;;;;;6.13;3.83;;;12.00;99.90;;;;;;5030256;28;20392;-76
2022/06/21 10:42:50;;;;;;;5.63;4.05;;;11.90;99.90;;;;;;5029675;28;20036;-76
2022/06/21 10:45:26;;;;;;;6.50;3.50;;;11.90;99.90;;;;;;5012500;28;20037;-75
2022/06/21 10:48:02;;;;;;;8.73;4.60;;;11.90;99.90;;;;;;5027500;28;20447;-76
2022/06/21 10:50:35;;;;;;;;;;;12.00;99.90;;;;;;5033807;28;20172;-76
2022/06/21 10:53:22;;;;;;;11.95;5.32;;;12.00;99.90;;;;;;5029926;28;19984;-76
2022/06/21 10:59:11;;;;;;;9.20;6.63;;;11.90;99.90;;;;;;5027905;28;20533;-77
2022/06/21 11:01:46;;;;;;;7.82;6.05;;;11.90;99.90;;;;;;5027139;28;20045;-78
2022/06/21 11:04:29;;;;;;;9.73;5.63;;;11.90;99.90;;;;;;5030377;28;20079;-78
2022/06/21 11:06:59;;;;;;;7.95;6.15;;;11.80;99.90;;;;;;5028206;28;20110;-78
2022/06/21 11:09:32;;;;;;;9.32;7.03;;;11.80;99.90;;;;;;5030261;28;20029;-77
2022/06/21 11:15:34;;;;;;;12.13;5.03;;;11.70;99.90;;;;;;5029204;28;20059;-74
2022/06/21 11:18:26;;;;;;;5.82;4.07;;;11.70;99.90;;;;;;5031119;28;20083;-74
2022/06/21 11:21:04;;;;;;;4.32;3.33;;;11.60;99.90;;;;;;5034212;28;20029;-74
2022/06/21 11:23:53;;;;;;;5.60;3.95;;;11.50;99.90;;;;;;5037148;28;20107;-74
2022/06/21 11:26:44;;;;;;;4.93;4.10;;;11.50;99.90;;;;;;5032815;28;20021;-75
2022/06/21 11:29:32;;;;;;;5.18;3.92;;;11.40;99.90;;;;;;5034757;28;20033;-75
2022/06/21 11:32:00;;;;;;;4.03;3.28;;;11.40;99.90;;;;;;5032828;28;20032;-75
2022/06/21 11:34:38;;;;;;;6.07;3.33;;;11.40;99.90;;;;;;5047484;28;20037;-75
2022/06/21 11:37:25;;;;;;;4.20;3.35;;;11.20;99.90;;;;;;5034379;28;20123;-76
2022/06/21 11:40:10;;;;;;;3.75;2.60;;;11.20;99.90;;;;;;5031489;28;20080;-74
2022/06/21 11:42:53;;;;;;;4.65;3.30;;;11.10;99.90;;;;;;5044037;28;20063;-76
2022/06/21 11:45:38;;;;;;;5.60;3.03;;;11.00;99.90;;;;;;5048593;28;20035;-75
2022/06/21 11:48:50;;;;;;;6.27;3.37;;;11.00;99.90;;;;;;5057443;28;20063;-74
2022/06/21 11:51:17;;;;;;;4.43;3.05;;;10.90;99.90;;;;;;5041429;28;20033;-75
2022/06/21 11:54:12;;;;;;;3.80;2.88;;;10.80;99.90;;;;;;5046903;28;20059;-74
2022/06/21 11:56:49;;;;;;;3.80;2.97;;;10.70;99.90;;;;;;5048880;28;20215;-75
2022/06/21 11:59:54;;;;;;;3.70;2.47;;;10.70;99.90;;;;;;5054881;28;20043;-74
2022/06/21 12:02:36;;;;;;;7.18;4.38;;;10.60;99.90;;;;;;5038288;28;20036;-74
2022/06/21 12:05:22;;;;;;;9.43;5.82;;;10.70;99.90;;;;;;5048326;28;20043;-74
2022/06/21 12:07:58;;;;;;;6.00;5.03;;;10.60;99.90;;;;;;5050738;28;20390;-74
2022/06/21 12:10:51;;;;;;;8.25;6.22;;;10.60;99.90;;;;;;5058583;28;20274;-74
2022/06/21 12:13:43;;;;;;;9.05;5.43;;;10.50;99.90;;;;;;5030854;28;20021;-74
2022/06/21 12:16:39;;;;;;;7.75;5.07;;;10.50;99.90;;;;;;5030924;28;20025;-75
2022/06/21 12:19:18;;;;;;;8.32;6.07;;;10.30;99.90;;;;;;5043311;28;20644;-77
2022/06/21 12:21:56;;;;;;;8.23;5.82;;;10.30;99.90;;;;;;5032656;28;20165;-75
2022/06/21 12:24:26;;;;;;;8.02;5.03;;;10.20;99.90;;;;;;5058846;28;20028;-75
2022/06/21 12:26:55;;;;;;;9.57;5.95;;;10.10;99.90;;;;;;5035708;28;20053;-74
2022/06/21 12:29:23;;;;;;;6.32;4.65;;;10.10;99.90;;;;;;5036070;28;20106;-74
2022/06/21 12:32:00;;;;;;;7.15;4.45;;;10.10;99.90;;;;;;5036221;28;20036;-74
2022/06/21 12:34:40;;;;;;;7.85;3.83;;;10.10;99.90;;;;;;5034730;28;20036;-73
2022/06/21 12:37:26;;;;;;;7.68;3.03;;;10.00;99.90;;;;;;5028824;28;20124;-74
2022/06/21 12:40:06;;;;;;;4.55;3.53;;;10.00;99.90;;;;;;5049281;28;20132;-74
2022/06/21 12:43:05;;;;;;;4.55;3.63;;;10.00;99.90;;;;;;5050407;28;20093;-76
2022/06/21 12:45:45;;;;;;;3.85;2.47;;;10.10;99.90;;;;;;5046046;28;20398;-75
2022/06/21 12:48:38;;;;;;;3.60;2.90;;;10.10;99.90;;;;;;5043317;28;20086;-74
2022/06/21 12:51:29;;;;;;;4.10;2.63;;;10.10;99.90;;;;;;5031857;28;20081;-73
2022/06/21 12:54:14;;;;;;;2.97;2.30;;;10.10;99.90;;;;;;5037578;28;20331;-76
2022/06/21 12:56:56;;;;;;;3.25;2.67;;;10.10;99.90;;;;;;5045045;28;20079;-73
2022/06/21 12:59:41;;;;;;;3.97;2.25;;;10.10;99.90;;;;;;5030814;28;20029;-74
2022/06/21 13:02:20;;;;;;;2.83;2.30;;;10.10;99.90;;;;;;5028747;28;20025;-74
2022/06/21 13:05:02;;;;;;;5.85;2.33;;;10.10;99.90;;;;;;5033541;28;20309;-74
2022/06/21 13:08:08;;;;;;;3.47;2.50;;;10.10;99.90;;;;;;5041347;28;20037;-74
2022/06/21 13:11:00;;;;;;;3.40;2.15;;;10.00;99.90;;;;;;5011450;28;20044;-75
2022/06/21 13:13:37;;;;;;;3.78;1.77;;;10.00;99.90;;;;;;5038040;28;20033;-75
2022/06/21 13:16:04;;;;;;;2.72;1.80;;;10.10;99.90;;;;;;5043519;28;20020;-75
2022/06/21 13:18:31;;;;;;;4.55;2.05;;;10.10;99.90;;;;;;5046374;28;20383;-75
2022/06/21 13:21:16;;;;;;;2.55;1.58;;;10.10;99.90;;;;;;5057250;28;20016;-75
2022/06/21 13:23:50;;;;;;;2.58;1.27;;;10.10;99.90;;;;;;5038976;28;20025;-73
2022/06/21 13:27:14;;;;;;;1.50;0.90;;;10.10;99.90;;;;;;5040578;28;20033;-75
2022/06/21 13:30:16;;;;;;;0.88;0.60;;;10.20;99.90;;;;;;5014404;28;20025;-74
2022/06/21 13:32:56;;;;;;;1.25;0.60;;;10.30;99.90;;;;;;5016433;28;20091;-74
2022/06/21 13:35:48;;;;;;;1.38;0.50;;;10.30;99.90;;;;;;5039460;28;20108;-75
2022/06/21 13:38:29;;;;;;;1.75;0.50;;;10.40;99.90;;;;;;5051399;28;20132;-74
2022/06/21 13:42:37;;;;;;;1.63;0.50;;;10.40;99.90;;;;;;5049086;28;20163;-75
2022/06/21 13:44:12;;;;;;;1.02;0.50;;;10.50;99.90;;;;;;5047570;28;20037;-75
2022/06/21 13:46:47;;;;;;;1.13;0.45;;;10.50;99.90;;;;;;5057124;28;20043;-75
2022/06/21 13:49:23;;;;;;;0.88;0.65;;;10.50;99.90;;;;;;5047086;28;20021;-74
2022/06/21 13:52:06;;;;;;;0.90;0.40;;;10.50;99.90;;;;;;5039386;28;20510;-75
2022/06/21 13:54:42;;;;;;;1.13;0.50;;;10.40;99.90;;;;;;5059867;28;20386;-74
2022/06/21 13:57:45;;;;;;;2.72;0.60;;;10.40;99.90;;;;;;5036108;28;20040;-76
2022/06/21 14:00:17;;;;;;;0.73;0.50;;;10.40;99.90;;;;;;5039179;28;20085;-76
2022/06/21 14:02:50;;;;;;;1.33;0.50;;;10.30;99.90;;;;;;5045240;28;20094;-77
2022/06/21 14:05:31;;;;;;;1.48;0.70;;;10.30;99.90;;;;;;5042405;28;20497;-75
2022/06/21 14:08:08;;;;;;;2.63;0.60;;;10.40;99.90;;;;;;5041398;28;20037;-74